Minot, North Dakota
Current Conditions -  °F | °C
As of 9:54 AM on Friday 19 Dec 2014 (Local Time) from KMOT Reporting Station
Haze Haze  
Wind Chill: 28°   Ceiling: 500
Heat Index: 28°   Visibility: 4mi
Dew Point: 26°   Wind: 3mph
Humidity: 92%   Direction: 260°W
Pressure: 29.93"   Gusts: NA
Location:  48.24°N, 101.29°W
Report Text: KMOT 191554Z 26003KT 4SM BR OVC005 M02/M03 A2993 RMK AO2 SLP163 T10221033
Loading
Personal Weather Stations






























Interactive Weather Map New forecast layout! Learn more

10-Day Weather Forecast

Advertisements
Track Severe Weather on mobile